createdAt,value
2023-03-29T00:00:11.029Z,11.02
2023-03-29T00:05:53.776Z,6.78
2023-03-29T00:08:27.648Z,7.47
2023-03-29T00:14:14.343Z,9.10
2023-03-29T00:20:19.909Z,9.15
2023-03-29T00:23:13.441Z,9.20
2023-03-29T00:25:56.456Z,7.68
2023-03-29T00:28:57.065Z,8.55
2023-03-29T00:31:27.313Z,7.22
2023-03-29T00:33:55.126Z,6.00
2023-03-29T00:36:26.810Z,7.70
2023-03-29T00:38:56.123Z,5.80
2023-03-29T00:41:34.353Z,10.77
2023-03-29T00:44:06.213Z,7.95
2023-03-29T00:46:47.037Z,6.43
2023-03-29T00:49:29.842Z,9.05
2023-03-29T00:54:47.929Z,8.77
2023-03-29T00:57:27.725Z,9.23
2023-03-29T01:03:08.570Z,10.60
2023-03-29T01:05:51.905Z,10.07
2023-03-29T01:09:41.576Z,9.35
2023-03-29T01:13:08.726Z,6.30
2023-03-29T01:15:46.495Z,8.48
2023-03-29T01:18:23.165Z,7.97
2023-03-29T01:25:04.644Z,7.22
2023-03-29T01:27:54.469Z,7.60
2023-03-29T01:30:57.462Z,9.02
2023-03-29T01:34:03.186Z,7.90
2023-03-29T01:43:21.826Z,8.85
2023-03-29T01:49:48.406Z,9.50
2023-03-29T01:55:51.529Z,7.22
2023-03-29T01:58:27.823Z,10.80
2023-03-29T02:01:10.358Z,7.57
2023-03-29T02:09:26.223Z,13.15
2023-03-29T02:12:14.990Z,9.05
2023-03-29T02:15:17.304Z,8.05
2023-03-29T02:20:49.548Z,6.68
2023-03-29T02:29:34.405Z,9.15
2023-03-29T02:32:11.839Z,9.32
2023-03-29T02:35:01.133Z,9.20
2023-03-29T02:40:36.976Z,8.68
2023-03-29T02:43:06.902Z,9.70
2023-03-29T02:45:38.312Z,9.20
2023-03-29T02:48:11.942Z,7.72
2023-03-29T02:53:40.501Z,8.18
2023-03-29T02:56:19.661Z,10.90
2023-03-29T02:59:00.707Z,7.75
2023-03-29T03:04:26.242Z,11.13
2023-03-29T03:06:55.516Z,9.85
2023-03-29T03:09:23.554Z,11.65
2023-03-29T03:11:51.927Z,8.68
2023-03-29T03:14:24.952Z,11.95
2023-03-29T03:16:53.203Z,9.00
2023-03-29T03:19:27.588Z,10.85
2023-03-29T03:22:02.685Z,10.20
2023-03-29T03:24:32.387Z,10.63
2023-03-29T03:29:46.300Z,8.23
2023-03-29T03:32:24.563Z,10.73
2023-03-29T03:35:02.601Z,10.07
2023-03-29T03:40:21.371Z,8.57
2023-03-29T03:42:50.770Z,8.88
2023-03-29T03:45:43.956Z,10.98
2023-03-29T03:51:09.214Z,11.77
2023-03-29T03:53:47.309Z,10.40
2023-03-29T03:56:26.111Z,10.15
2023-03-29T03:59:13.112Z,12.70
2023-03-29T04:01:44.070Z,8.95
2023-03-29T04:04:23.523Z,8.02
2023-03-29T04:07:05.740Z,9.95
2023-03-29T04:09:45.637Z,11.98
2023-03-29T04:12:15.780Z,8.05
2023-03-29T04:14:44.673Z,10.48
2023-03-29T04:17:12.530Z,11.85
2023-03-29T04:19:41.999Z,8.95
2023-03-29T04:22:31.610Z,10.30
2023-03-29T04:25:08.753Z,13.35
2023-03-29T04:27:41.417Z,12.90
2023-03-29T04:30:17.437Z,12.45
2023-03-29T04:35:41.119Z,9.48
2023-03-29T04:38:23.741Z,13.13
2023-03-29T04:43:48.246Z,10.70
2023-03-29T04:49:27.833Z,10.10
2023-03-29T04:51:58.811Z,11.02
2023-03-29T04:57:12.352Z,12.45
2023-03-29T04:59:41.503Z,9.65
2023-03-29T05:02:09.155Z,10.93
2023-03-29T05:04:36.703Z,11.40
2023-03-29T05:07:05.785Z,11.45
2023-03-29T05:10:01.539Z,16.27
2023-03-29T05:15:18.210Z,12.90
2023-03-29T05:18:15.210Z,14.55
2023-03-29T05:20:52.477Z,16.42
2023-03-29T05:23:22.780Z,15.93
2023-03-29T05:25:57.010Z,13.02
2023-03-29T05:28:24.585Z,12.32
2023-03-29T05:31:04.600Z,11.80
2023-03-29T05:33:35.281Z,9.95
2023-03-29T05:36:27.864Z,11.63
2023-03-29T05:39:05.991Z,10.80
2023-03-29T05:41:38.415Z,16.05
2023-03-29T05:44:06.876Z,12.98
2023-03-29T05:46:41.611Z,14.88
2023-03-29T05:49:17.431Z,11.18
2023-03-29T05:52:04.635Z,16.70
2023-03-29T05:54:48.578Z,11.10
2023-03-29T05:57:17.030Z,13.23
2023-03-29T05:59:55.216Z,15.13
2023-03-29T06:02:29.708Z,20.58
2023-03-29T06:05:08.633Z,16.30
2023-03-29T06:07:38.342Z,13.13
2023-03-29T06:10:06.648Z,13.98
2023-03-29T06:12:34.345Z,16.05
2023-03-29T06:15:04.991Z,12.90
2023-03-29T06:17:33.826Z,15.23
2023-03-29T06:20:02.088Z,14.57
2023-03-29T06:22:29.423Z,15.27
2023-03-29T06:24:56.820Z,14.15
2023-03-29T06:27:24.210Z,11.43
2023-03-29T06:29:51.742Z,13.55
2023-03-29T06:32:19.149Z,12.32
2023-03-29T06:34:46.494Z,13.00
2023-03-29T06:37:13.886Z,13.32
2023-03-29T06:39:42.475Z,13.15
2023-03-29T06:42:20.613Z,15.63
2023-03-29T06:44:54.412Z,17.92
2023-03-29T06:47:24.359Z,13.45
2023-03-29T06:49:51.819Z,11.73
2023-03-29T06:52:19.184Z,17.63
2023-03-29T06:54:46.608Z,13.32
2023-03-29T06:57:14.069Z,15.02
2023-03-29T06:59:41.688Z,16.55
2023-03-29T07:02:12.664Z,11.07
2023-03-29T07:04:41.997Z,16.45
2023-03-29T07:07:19.725Z,12.80
2023-03-29T07:09:54.108Z,18.08
2023-03-29T07:12:23.109Z,13.13
2023-03-29T07:14:50.440Z,20.33
2023-03-29T07:17:18.632Z,13.20
2023-03-29T07:19:46.927Z,18.30
2023-03-29T07:22:15.269Z,13.73
2023-03-29T07:24:42.760Z,11.32
2023-03-29T07:27:10.190Z,16.73
2023-03-29T07:29:37.825Z,15.90
2023-03-29T07:32:05.677Z,18.23
2023-03-29T07:34:33.014Z,14.02
2023-03-29T07:37:00.355Z,18.63
2023-03-29T07:39:27.884Z,15.55
2023-03-29T07:41:58.151Z,16.67
2023-03-29T07:44:27.045Z,14.30
2023-03-29T07:46:54.988Z,17.73
2023-03-29T07:49:22.353Z,21.02
2023-03-29T07:51:49.760Z,21.77
2023-03-29T07:54:18.065Z,22.67
2023-03-29T07:56:45.484Z,15.60
2023-03-29T07:59:12.841Z,18.85
2023-03-29T08:01:41.161Z,17.67
2023-03-29T08:04:09.631Z,18.30
2023-03-29T08:06:37.420Z,14.20
2023-03-29T08:09:08.748Z,16.83
2023-03-29T08:11:38.552Z,18.30
2023-03-29T08:14:06.794Z,18.35
2023-03-29T08:16:34.294Z,14.48
2023-03-29T08:19:01.699Z,17.20
2023-03-29T08:21:29.118Z,20.75
2023-03-29T08:23:57.064Z,21.33
2023-03-29T08:26:24.518Z,22.02
2023-03-29T08:28:52.185Z,21.33
2023-03-29T08:31:19.714Z,19.13
2023-03-29T08:33:47.138Z,16.80
2023-03-29T08:36:14.785Z,18.25
2023-03-29T08:38:42.205Z,20.02
2023-03-29T08:41:21.849Z,22.83
2023-03-29T08:44:20.699Z,24.02
2023-03-29T08:47:07.273Z,20.83
2023-03-29T08:49:36.844Z,20.92
2023-03-29T08:52:06.763Z,22.42
2023-03-29T08:54:41.782Z,19.52
2023-03-29T08:57:17.555Z,17.90
2023-03-29T08:59:53.082Z,18.00
2023-03-29T09:02:27.913Z,18.30
2023-03-29T09:05:01.986Z,17.75
2023-03-29T09:07:35.633Z,20.55
2023-03-29T09:10:13.660Z,20.23
2023-03-29T09:13:20.564Z,19.85
2023-03-29T09:16:06.882Z,20.00
2023-03-29T09:19:01.172Z,22.10
2023-03-29T09:21:48.323Z,18.98
2023-03-29T09:24:49.710Z,21.05
2023-03-29T09:27:23.198Z,19.60
2023-03-29T09:30:25.820Z,15.13
2023-03-29T09:33:08.508Z,18.07
2023-03-29T09:35:43.842Z,18.63
2023-03-29T09:38:20.116Z,19.88
2023-03-29T09:40:50.660Z,20.60
2023-03-29T09:43:39.917Z,18.63
2023-03-29T09:46:30.438Z,17.17
2023-03-29T09:48:57.995Z,18.42
2023-03-29T09:51:27.250Z,16.92
2023-03-29T09:53:57.144Z,17.45
2023-03-29T09:56:24.548Z,17.85
2023-03-29T09:58:52.923Z,18.15
2023-03-29T10:01:20.492Z,17.45
2023-03-29T10:03:53.283Z,26.73
2023-03-29T10:06:23.654Z,21.08
2023-03-29T10:08:56.744Z,19.35
2023-03-29T10:11:35.241Z,18.35
2023-03-29T10:14:16.936Z,18.30
2023-03-29T10:16:47.461Z,22.00
2023-03-29T10:19:27.638Z,21.02
2023-03-29T10:22:00.643Z,22.33
2023-03-29T10:24:29.513Z,20.60
2023-03-29T10:27:43.274Z,24.23
2023-03-29T10:33:39.517Z,22.38
2023-03-29T10:36:15.557Z,23.25
2023-03-29T10:38:43.802Z,22.13
2023-03-29T10:41:12.644Z,22.58
2023-03-29T10:43:49.351Z,28.45
2023-03-29T10:46:23.605Z,27.05
2023-03-29T10:48:55.594Z,25.55
2023-03-29T10:51:25.335Z,21.20
2023-03-29T10:53:52.804Z,19.95
2023-03-29T10:56:20.271Z,20.42
2023-03-29T10:59:20.088Z,22.30
2023-03-29T11:02:13.449Z,19.08
2023-03-29T11:04:47.688Z,19.83
2023-03-29T11:07:46.007Z,17.33
2023-03-29T11:10:16.672Z,17.52
2023-03-29T11:12:59.226Z,17.10
2023-03-29T11:15:50.812Z,20.30
2023-03-29T11:18:48.601Z,18.60
2023-03-29T11:21:31.430Z,20.05
2023-03-29T11:24:00.114Z,19.92
2023-03-29T11:26:49.136Z,17.30
2023-03-29T11:29:25.936Z,18.23
2023-03-29T11:32:17.850Z,17.08
2023-03-29T11:34:57.408Z,18.88
2023-03-29T11:37:54.420Z,19.38
2023-03-29T11:40:55.687Z,13.70
2023-03-29T11:44:09.130Z,17.27
2023-03-29T11:47:23.752Z,20.88
2023-03-29T11:50:36.848Z,18.08
2023-03-29T11:53:15.851Z,17.10
2023-03-29T11:55:44.916Z,18.20
2023-03-29T11:58:38.758Z,19.30
2023-03-29T12:01:33.959Z,18.83
2023-03-29T12:07:18.397Z,22.48
2023-03-29T12:09:57.919Z,20.60
2023-03-29T12:16:33.191Z,21.58
2023-03-29T12:19:18.092Z,22.60
2023-03-29T12:21:54.957Z,21.15
2023-03-29T12:24:35.924Z,21.15
2023-03-29T12:27:22.012Z,25.58
2023-03-29T12:30:08.682Z,21.80
2023-03-29T12:33:00.281Z,20.90
2023-03-29T12:35:49.739Z,20.77
2023-03-29T12:38:23.930Z,22.33
2023-03-29T12:41:18.997Z,21.15
2023-03-29T12:43:50.620Z,23.30
2023-03-29T12:46:27.408Z,22.38
2023-03-29T12:49:07.927Z,20.58
2023-03-29T12:51:38.483Z,19.13
2023-03-29T12:54:25.056Z,19.75
2023-03-29T12:57:18.765Z,20.85
2023-03-29T12:59:48.274Z,20.75
2023-03-29T13:02:15.640Z,19.65
2023-03-29T13:04:57.253Z,18.30
2023-03-29T13:07:27.476Z,18.20
2023-03-29T13:09:59.716Z,20.80
2023-03-29T13:12:32.912Z,19.55
2023-03-29T13:15:03.480Z,20.60
2023-03-29T13:17:52.335Z,19.05
2023-03-29T13:20:45.657Z,21.17
2023-03-29T13:26:07.692Z,21.50
2023-03-29T13:28:55.016Z,20.38
2023-03-29T13:31:44.355Z,20.80
2023-03-29T13:34:51.730Z,21.15
2023-03-29T13:37:55.383Z,21.50
2023-03-29T13:40:32.291Z,23.00
2023-03-29T13:43:19.799Z,19.40
2023-03-29T13:46:05.818Z,23.50
2023-03-29T13:48:36.543Z,20.00
2023-03-29T13:51:40.473Z,18.77
2023-03-29T13:54:50.956Z,22.92
2023-03-29T13:57:31.791Z,16.30
2023-03-29T14:00:24.949Z,19.25
2023-03-29T14:03:26.425Z,18.98
2023-03-29T14:05:59.581Z,20.75
2023-03-29T14:08:33.974Z,18.73
2023-03-29T14:11:07.270Z,22.27
2023-03-29T14:13:35.292Z,15.30
2023-03-29T14:16:06.888Z,14.75
2023-03-29T14:18:41.264Z,11.05
2023-03-29T14:21:11.203Z,14.07
2023-03-29T14:23:43.572Z,18.63
2023-03-29T14:26:19.353Z,12.40
2023-03-29T14:28:56.606Z,13.88
2023-03-29T14:31:35.856Z,15.02
2023-03-29T14:34:06.739Z,12.15
2023-03-29T14:36:35.159Z,12.82
2023-03-29T14:39:24.250Z,14.15
2023-03-29T14:42:12.048Z,10.00
2023-03-29T14:44:49.373Z,12.45
2023-03-29T14:47:38.781Z,10.25
2023-03-29T14:50:07.218Z,10.30
2023-03-29T14:52:34.909Z,8.90
2023-03-29T14:55:10.807Z,10.05
2023-03-29T14:57:38.307Z,10.32
2023-03-29T15:00:26.922Z,12.38
2023-03-29T15:02:57.141Z,12.02
2023-03-29T15:05:35.798Z,11.70
2023-03-29T15:08:04.815Z,12.30
2023-03-29T15:10:33.851Z,9.05
2023-03-29T15:13:03.754Z,12.07
2023-03-29T15:15:37.020Z,8.93
2023-03-29T15:18:06.905Z,11.02
2023-03-29T15:20:38.638Z,12.18
2023-03-29T15:23:21.481Z,9.15
2023-03-29T15:25:59.054Z,7.60
2023-03-29T15:28:33.035Z,7.50
2023-03-29T15:31:14.930Z,8.25
2023-03-29T15:33:42.582Z,9.10
2023-03-29T15:36:12.071Z,11.18
2023-03-29T15:38:44.640Z,5.90
2023-03-29T15:41:13.776Z,6.97
2023-03-29T15:43:42.068Z,8.65
2023-03-29T15:46:13.974Z,7.10
2023-03-29T15:48:42.187Z,8.97
2023-03-29T15:51:12.996Z,7.63
2023-03-29T15:53:40.953Z,6.65
2023-03-29T15:56:11.468Z,8.32
2023-03-29T15:58:39.264Z,10.43
2023-03-29T16:01:23.788Z,6.18
2023-03-29T16:03:51.452Z,6.60
2023-03-29T16:06:23.983Z,7.45
2023-03-29T16:08:51.614Z,4.65
2023-03-29T16:11:18.950Z,5.07
2023-03-29T16:13:46.425Z,6.68
2023-03-29T16:16:13.883Z,4.72
2023-03-29T16:18:41.489Z,5.50
2023-03-29T16:21:12.827Z,6.40
2023-03-29T16:23:40.870Z,6.05
2023-03-29T16:26:08.650Z,7.43
2023-03-29T16:28:37.805Z,6.47
2023-03-29T16:31:13.213Z,8.40
2023-03-29T16:33:41.646Z,9.82
2023-03-29T16:36:09.865Z,6.97
2023-03-29T16:38:37.551Z,10.13
2023-03-29T16:41:05.302Z,7.25
2023-03-29T16:43:32.867Z,7.10
2023-03-29T16:46:00.397Z,6.32
2023-03-29T16:48:27.851Z,6.70
2023-03-29T16:50:55.519Z,5.70
2023-03-29T16:53:23.690Z,7.72
2023-03-29T16:55:51.311Z,9.18
2023-03-29T16:58:18.827Z,8.23
2023-03-29T17:00:48.153Z,7.32
2023-03-29T17:03:17.032Z,7.28
2023-03-29T17:06:05.695Z,9.95
2023-03-29T17:08:34.119Z,7.30
2023-03-29T17:11:01.621Z,5.72
2023-03-29T17:13:29.251Z,6.70
2023-03-29T17:15:57.200Z,6.85
2023-03-29T17:18:26.479Z,5.43
2023-03-29T17:20:56.781Z,7.82
2023-03-29T17:23:24.621Z,6.00
2023-03-29T17:25:53.715Z,8.60
2023-03-29T17:28:21.518Z,6.47
2023-03-29T17:30:48.955Z,6.43
2023-03-29T17:33:16.349Z,8.93
2023-03-29T17:35:44.607Z,6.50
2023-03-29T17:38:12.714Z,7.70
2023-03-29T17:40:40.138Z,10.98
2023-03-29T17:43:07.591Z,10.48
2023-03-29T17:45:35.473Z,11.82
2023-03-29T17:48:04.874Z,9.05
2023-03-29T17:50:34.067Z,10.63
2023-03-29T17:53:01.405Z,8.95
2023-03-29T17:55:28.761Z,9.65
2023-03-29T17:57:56.365Z,12.75
2023-03-29T18:00:23.890Z,10.57
2023-03-29T18:02:53.706Z,13.70
2023-03-29T18:05:24.467Z,10.75
2023-03-29T18:07:51.937Z,10.05
2023-03-29T18:10:19.429Z,12.73
2023-03-29T18:12:46.762Z,9.18
2023-03-29T18:15:14.076Z,10.93
2023-03-29T18:17:41.526Z,8.82
2023-03-29T18:20:11.844Z,12.32
2023-03-29T18:22:41.454Z,10.93
2023-03-29T18:25:10.174Z,11.30
2023-03-29T18:27:38.891Z,9.07
2023-03-29T18:30:08.936Z,9.90
2023-03-29T18:32:36.954Z,11.05
2023-03-29T18:35:04.858Z,10.85
2023-03-29T18:37:32.523Z,10.90
2023-03-29T18:40:00.404Z,11.05
2023-03-29T18:42:27.937Z,9.60
2023-03-29T18:44:55.263Z,14.73
2023-03-29T18:47:22.693Z,11.07
2023-03-29T18:49:50.050Z,12.30
2023-03-29T18:52:17.473Z,13.05
2023-03-29T18:54:44.807Z,12.32
2023-03-29T18:57:12.404Z,14.68
2023-03-29T18:59:42.388Z,13.80
2023-03-29T19:02:17.443Z,13.98
2023-03-29T19:04:48.388Z,14.52
2023-03-29T19:07:19.048Z,13.30
2023-03-29T19:09:51.025Z,12.15
2023-03-29T19:12:21.881Z,15.10
2023-03-29T19:14:51.188Z,14.90
2023-03-29T19:17:25.946Z,15.70
2023-03-29T19:19:57.458Z,12.77
2023-03-29T19:22:41.164Z,15.40
2023-03-29T19:25:12.534Z,14.65
2023-03-29T19:27:41.912Z,14.00
2023-03-29T19:30:17.774Z,16.63
2023-03-29T19:32:46.424Z,18.35
2023-03-29T19:35:15.696Z,13.98
2023-03-29T19:37:45.382Z,12.77
2023-03-29T19:40:14.116Z,14.95
2023-03-29T19:42:42.705Z,11.70
2023-03-29T19:45:18.204Z,16.25
2023-03-29T19:47:53.196Z,13.77
2023-03-29T19:50:24.814Z,13.05
2023-03-29T19:53:00.694Z,14.82
2023-03-29T19:55:29.852Z,14.82
2023-03-29T19:58:01.523Z,14.85
2023-03-29T20:00:34.831Z,17.63
2023-03-29T20:03:08.494Z,12.55
2023-03-29T20:05:38.394Z,15.93
2023-03-29T20:08:08.871Z,11.82
2023-03-29T20:10:38.782Z,15.95
2023-03-29T20:13:11.435Z,13.02
2023-03-29T20:15:39.016Z,13.85
2023-03-29T20:18:10.059Z,13.50
2023-03-29T20:20:37.613Z,18.15
2023-03-29T20:23:05.579Z,16.67
2023-03-29T20:25:36.219Z,14.88
2023-03-29T20:28:04.942Z,11.73
2023-03-29T20:30:34.587Z,12.43
2023-03-29T20:33:02.020Z,13.02
2023-03-29T20:35:29.441Z,12.00
2023-03-29T20:37:56.841Z,10.95
2023-03-29T20:40:24.876Z,12.77
2023-03-29T20:42:55.873Z,15.05
2023-03-29T20:45:35.110Z,12.18
2023-03-29T20:48:10.794Z,12.50
2023-03-29T20:50:40.362Z,13.35
2023-03-29T20:53:08.557Z,13.43
2023-03-29T20:55:38.906Z,13.52
2023-03-29T20:58:08.062Z,12.02
2023-03-29T21:00:37.912Z,15.25
2023-03-29T21:03:07.142Z,11.10
2023-03-29T21:05:34.937Z,9.60
2023-03-29T21:08:06.126Z,10.68
2023-03-29T21:10:36.622Z,15.52
2023-03-29T21:13:04.393Z,9.85
2023-03-29T21:15:31.945Z,16.25
2023-03-29T21:17:59.490Z,12.13
2023-03-29T21:20:27.658Z,13.40
2023-03-29T21:22:55.073Z,14.77
2023-03-29T21:25:22.478Z,12.40
2023-03-29T21:27:50.113Z,9.18
2023-03-29T21:30:18.620Z,10.40
2023-03-29T21:32:48.351Z,9.88
2023-03-29T21:35:15.801Z,14.60
2023-03-29T21:37:43.471Z,13.13
2023-03-29T21:40:12.712Z,11.02
2023-03-29T21:42:40.084Z,16.63
2023-03-29T21:45:26.007Z,11.55
2023-03-29T21:47:53.496Z,15.07
2023-03-29T21:50:23.528Z,12.88
2023-03-29T21:52:51.126Z,13.40
2023-03-29T21:55:19.172Z,11.40
2023-03-29T21:57:46.585Z,12.10
2023-03-29T22:00:15.813Z,13.85
2023-03-29T22:02:49.826Z,14.23
2023-03-29T22:05:23.482Z,16.10
2023-03-29T22:07:55.993Z,15.45
2023-03-29T22:10:33.014Z,10.45
2023-03-29T22:13:01.051Z,13.07
2023-03-29T22:15:29.437Z,13.02
2023-03-29T22:17:58.606Z,10.05
2023-03-29T22:20:27.606Z,15.32
2023-03-29T22:22:55.678Z,14.27
2023-03-29T22:25:24.426Z,11.95
2023-03-29T22:27:51.755Z,11.32
2023-03-29T22:30:19.309Z,13.65
2023-03-29T22:32:46.748Z,13.82
2023-03-29T22:35:14.290Z,13.82
2023-03-29T22:37:45.827Z,12.32
2023-03-29T22:40:14.401Z,12.32
2023-03-29T22:42:41.919Z,11.40
2023-03-29T22:45:10.088Z,10.93
2023-03-29T22:47:37.445Z,12.23
2023-03-29T22:50:09.087Z,10.45
2023-03-29T22:52:36.755Z,11.30
2023-03-29T22:55:04.188Z,12.80
2023-03-29T22:57:31.625Z,11.50
2023-03-29T22:59:59.174Z,11.50
2023-03-29T23:02:26.827Z,9.40
2023-03-29T23:04:54.116Z,11.82
2023-03-29T23:07:21.547Z,10.55
2023-03-29T23:09:48.952Z,10.60
2023-03-29T23:12:16.558Z,9.05
2023-03-29T23:14:45.136Z,9.70
2023-03-29T23:17:14.613Z,6.22
2023-03-29T23:19:42.235Z,7.40
2023-03-29T23:22:12.462Z,6.53
2023-03-29T23:24:42.630Z,10.52
2023-03-29T23:27:10.989Z,6.72
2023-03-29T23:29:42.513Z,5.32
2023-03-29T23:32:14.455Z,6.65
2023-03-29T23:34:44.185Z,7.63
2023-03-29T23:37:19.535Z,10.48
2023-03-29T23:39:48.210Z,9.90
2023-03-29T23:42:15.733Z,7.75
2023-03-29T23:44:43.823Z,9.18
2023-03-29T23:47:11.121Z,6.13
2023-03-29T23:49:38.818Z,8.13
2023-03-29T23:52:13.323Z,7.82
2023-03-29T23:54:41.093Z,6.10
2023-03-29T23:57:10.978Z,3.38
2023-03-29T23:59:43.241Z,6.70
